Time;durP1;ratioP1;P1;durP2;ratioP2;P2;SDS_P1;SDS_P2;PMS_P1;PMS_P2;Temp;Humidity;BMP_temperature;BMP_pressure;BME280_temperature;BME280_humidity;BME280_pressure;Samples;Min_cycle;Max_cycle;Signal;HPM_P1;HPM_P2
2023/02/14 00:01:28;;;;;;;32.42;14.23;;;-0.60;99.90;;;;;;4958366;29;20049;-88
2023/02/14 00:03:59;;;;;;;48.28;14.48;;;-0.70;99.90;;;;;;4975603;28;20039;-88
2023/02/14 00:06:31;;;;;;;26.15;16.35;;;-0.60;99.90;;;;;;4973128;28;20035;-88
2023/02/14 00:08:59;;;;;;;31.15;13.05;;;-0.60;99.90;;;;;;4952374;29;20057;-87
2023/02/14 00:11:27;;;;;;;46.45;13.63;;;-0.60;99.90;;;;;;4969799;29;20099;-88
2023/02/14 00:16:42;;;;;;;62.97;15.77;;;-0.70;99.90;;;;;;4965929;28;20031;-87
2023/02/14 00:19:12;;;;;;;64.03;14.88;;;-0.80;99.90;;;;;;4926014;29;20059;-88
2023/02/14 00:21:41;;;;;;;75.47;16.45;;;-0.80;99.90;;;;;;4947689;29;20047;-87
2023/02/14 00:24:11;;;;;;;44.88;14.68;;;-0.80;99.90;;;;;;4912167;29;20397;-87
2023/02/14 00:26:41;;;;;;;43.78;16.27;;;-0.80;99.90;;;;;;4938596;29;20067;-87
2023/02/14 00:29:12;;;;;;;27.50;17.52;;;-0.70;99.90;;;;;;4955216;28;20044;-87
2023/02/14 00:31:41;;;;;;;44.22;16.83;;;-0.70;99.90;;;;;;4945341;29;20052;-88
2023/02/14 00:34:10;;;;;;;90.22;19.23;;;-0.60;99.90;;;;;;4934771;29;20047;-87
2023/02/14 00:36:37;;;;;;;70.22;16.40;;;-0.60;99.90;;;;;;4912709;29;20401;-88
2023/02/14 00:39:08;;;;;;;50.35;17.38;;;-0.70;99.90;;;;;;4937656;29;20057;-88
2023/02/14 00:41:38;;;;;;;47.60;17.75;;;-0.70;99.90;;;;;;4955066;28;20047;-87
2023/02/14 00:44:08;;;;;;;48.83;17.38;;;-0.70;99.90;;;;;;4927812;29;20044;-87
2023/02/14 00:46:36;;;;;;;45.80;16.48;;;-0.70;99.90;;;;;;4941131;29;20311;-87
2023/02/14 00:49:04;;;;;;;65.90;14.90;;;-0.70;99.90;;;;;;4937481;29;20454;-87
2023/02/14 00:51:32;;;;;;;64.00;16.92;;;-0.70;99.90;;;;;;4938674;29;20066;-88
2023/02/14 00:54:02;;;;;;;70.57;16.92;;;-0.70;99.90;;;;;;4913828;29;20043;-87
2023/02/14 00:56:31;;;;;;;64.82;18.58;;;-0.80;99.90;;;;;;4937287;29;20063;-87
2023/02/14 00:58:59;;;;;;;39.22;15.55;;;-0.70;99.90;;;;;;4922206;28;20059;-88
2023/02/14 01:01:26;;;;;;;35.35;14.25;;;-0.80;99.90;;;;;;4925042;29;20051;-88
2023/02/14 01:03:54;;;;;;;64.05;16.17;;;-0.70;99.90;;;;;;4935949;29;20739;-87
2023/02/14 01:06:22;;;;;;;61.17;17.27;;;-0.70;99.90;;;;;;4955530;29;20443;-87
2023/02/14 01:08:50;;;;;;;55.72;15.52;;;-0.70;99.90;;;;;;4936459;29;20047;-87
2023/02/14 01:11:20;;;;;;;57.78;14.05;;;-0.80;99.90;;;;;;4929030;29;20416;-87
2023/02/14 01:13:50;;;;;;;91.53;17.13;;;-0.80;99.90;;;;;;4936411;29;20058;-87
2023/02/14 01:16:22;;;;;;;112.35;18.63;;;-0.80;99.90;;;;;;4932318;29;20051;-87
2023/02/14 01:18:50;;;;;;;48.85;14.32;;;-0.80;99.90;;;;;;4947629;29;20059;-87
2023/02/14 01:21:38;;;;;;;67.68;16.02;;;-0.90;99.90;;;;;;4932730;29;20050;-87
2023/02/14 01:24:07;;;;;;;121.38;18.85;;;-0.90;99.90;;;;;;4941879;29;20479;-87
2023/02/14 01:26:35;;;;;;;32.30;16.85;;;-0.90;99.90;;;;;;4946501;28;20047;-86
2023/02/14 01:29:04;;;;;;;28.02;15.77;;;-0.90;99.90;;;;;;4931145;29;20413;-87
2023/02/14 01:31:33;;;;;;;80.55;17.38;;;-0.90;99.90;;;;;;4951962;29;20428;-87
2023/02/14 01:34:04;;;;;;;36.10;15.05;;;-0.90;99.90;;;;;;4944602;28;20621;-87
2023/02/14 01:36:38;;;;;;;49.03;16.92;;;-0.80;99.90;;;;;;4945491;29;20051;-87
2023/02/14 01:39:10;;;;;;;87.97;15.68;;;-0.90;99.90;;;;;;4931883;29;20424;-87
2023/02/14 01:41:40;;;;;;;37.95;14.30;;;-0.80;99.90;;;;;;4906444;29;20047;-87
2023/02/14 01:44:27;;;;;;;43.45;14.73;;;-0.90;99.90;;;;;;4951194;29;20420;-86
2023/02/14 01:46:57;;;;;;;29.13;14.75;;;-0.90;99.90;;;;;;4920224;29;20055;-87
2023/02/14 01:49:37;;;;;;;43.75;17.08;;;-0.90;99.90;;;;;;4920707;29;20058;-87
2023/02/14 01:52:11;;;;;;;33.35;12.40;;;-0.90;99.90;;;;;;4931473;29;20056;-87
2023/02/14 01:54:45;;;;;;;99.35;18.67;;;-0.90;99.90;;;;;;4934253;29;20051;-87
2023/02/14 01:57:16;;;;;;;51.53;18.45;;;-0.90;99.90;;;;;;4933891;29;20416;-87
2023/02/14 02:00:55;;;;;;;78.53;18.98;;;-0.80;99.90;;;;;;4934899;29;20047;-86
2023/02/14 02:02:46;;;;;;;40.60;13.77;;;-0.90;99.90;;;;;;4923310;29;20094;-87
2023/02/14 02:05:22;;;;;;;52.13;15.90;;;-0.80;99.90;;;;;;4949287;29;20412;-87
2023/02/14 02:07:55;;;;;;;42.50;15.68;;;-0.90;99.90;;;;;;4949898;29;20066;-86
2023/02/14 02:10:24;;;;;;;101.30;15.38;;;-1.00;99.90;;;;;;4928931;29;20048;-87
2023/02/14 02:12:52;;;;;;;29.55;15.73;;;-0.90;99.90;;;;;;4917709;29;20047;-87
2023/02/14 02:15:25;;;;;;;29.52;11.50;;;-0.90;99.90;;;;;;4924720;29;20439;-87
2023/02/14 02:17:53;;;;;;;60.20;15.15;;;-0.80;99.90;;;;;;4938033;29;20257;-86
2023/02/14 02:20:50;;;;;;;34.72;14.25;;;-0.90;99.90;;;;;;4948900;28;20062;-86
2023/02/14 02:23:36;;;;;;;27.08;15.18;;;-0.80;99.90;;;;;;4915712;29;20073;-88
2023/02/14 02:26:38;;;;;;;55.45;15.45;;;-0.80;99.90;;;;;;4939213;29;20397;-86
2023/02/14 02:29:32;;;;;;;56.65;17.70;;;-0.80;99.90;;;;;;4922682;29;20050;-87
2023/02/14 02:32:24;;;;;;;22.80;12.55;;;-0.80;99.90;;;;;;4933717;29;20062;-86
2023/02/14 02:34:58;;;;;;;27.27;16.42;;;-0.80;99.90;;;;;;4927734;29;20043;-87
2023/02/14 02:37:28;;;;;;;73.70;20.25;;;-0.80;99.90;;;;;;4916892;29;20050;-86
2023/02/14 02:40:20;;;;;;;36.20;16.33;;;-0.80;99.90;;;;;;4948274;29;20050;-86
2023/02/14 02:42:56;;;;;;;;;;;-0.80;99.90;;;;;;4873581;29;20082;-86
2023/02/14 02:46:46;;;;;;;33.05;15.27;;;-0.80;99.90;;;;;;4909747;29;19933;-86
2023/02/14 02:48:35;;;;;;;34.55;16.42;;;-0.90;99.90;;;;;;4892137;29;20052;-86
2023/02/14 02:54:02;;;;;;;55.13;16.50;;;-0.90;99.90;;;;;;4908813;29;20465;-86
2023/02/14 02:56:45;;;;;;;53.00;17.55;;;-0.90;99.90;;;;;;4890749;29;20055;-86
2023/02/14 02:59:27;;;;;;;25.67;14.23;;;-0.90;99.90;;;;;;4910110;29;20052;-86
2023/02/14 03:02:00;;;;;;;73.03;16.73;;;-0.80;99.90;;;;;;4876551;29;20052;-86
2023/02/14 03:04:51;;;;;;;34.90;15.02;;;-0.90;99.90;;;;;;4909101;29;20231;-86
2023/02/14 03:07:39;;;;;;;41.00;17.92;;;-0.90;99.90;;;;;;4927111;29;20348;-86
2023/02/14 03:10:25;;;;;;;37.28;14.15;;;-0.90;99.90;;;;;;4930746;29;20062;-86
2023/02/14 03:13:12;;;;;;;30.52;15.60;;;-0.80;99.90;;;;;;4916954;29;20265;-86
2023/02/14 03:15:52;;;;;;;27.67;12.32;;;-0.80;99.90;;;;;;4922745;29;20062;-86
2023/02/14 03:18:42;;;;;;;40.47;16.60;;;-0.90;99.90;;;;;;4915549;29;20055;-85
2023/02/14 03:21:35;;;;;;;26.85;14.65;;;-0.90;99.90;;;;;;4913452;29;20051;-85
2023/02/14 03:24:45;;;;;;;27.48;15.15;;;-0.90;99.90;;;;;;4930184;29;20063;-77
2023/02/14 03:27:27;;;;;;;24.83;12.75;;;-0.90;99.90;;;;;;4907327;29;20051;-77
2023/02/14 03:30:10;;;;;;;41.50;14.20;;;-0.90;99.90;;;;;;4918895;29;20420;-77
2023/02/14 03:32:57;;;;;;;29.48;15.25;;;-0.90;99.90;;;;;;4937497;28;20044;-77
2023/02/14 03:35:35;;;;;;;34.30;16.20;;;-0.90;99.90;;;;;;4929982;29;20055;-77
2023/02/14 03:38:10;;;;;;;130.52;17.75;;;-0.90;99.90;;;;;;4930321;29;20043;-77
2023/02/14 03:40:42;;;;;;;49.38;16.58;;;-1.00;99.90;;;;;;4907528;29;20047;-77
2023/02/14 03:43:50;;;;;;;41.83;16.42;;;-1.00;99.90;;;;;;4919896;29;20051;-77
2023/02/14 03:46:27;;;;;;;55.97;17.55;;;-1.00;99.90;;;;;;4901662;29;20057;-77
2023/02/14 03:48:58;;;;;;;53.20;15.38;;;-0.90;99.90;;;;;;4932507;29;20047;-76
2023/02/14 03:51:33;;;;;;;30.50;14.20;;;-0.90;99.90;;;;;;4937724;29;20055;-77
2023/02/14 03:54:05;;;;;;;33.05;16.83;;;-1.00;99.90;;;;;;4905487;29;20043;-77
2023/02/14 03:56:51;;;;;;;32.80;14.60;;;-1.00;99.90;;;;;;4913069;29;20086;-77
2023/02/14 03:59:22;;;;;;;28.02;16.73;;;-0.90;99.90;;;;;;4931521;29;20597;-77
2023/02/14 04:02:08;;;;;;;;;;;-1.00;99.90;;;;;;4941790;28;20063;-77
2023/02/14 04:04:42;;;;;;;37.40;14.75;;;-0.90;99.90;;;;;;4930386;29;19937;-77
2023/02/14 04:07:12;;;;;;;32.00;15.13;;;-1.00;99.90;;;;;;4940765;29;20726;-77
2023/02/14 04:09:41;;;;;;;56.80;15.18;;;-1.10;99.90;;;;;;4936630;29;20674;-77
2023/02/14 04:12:13;;;;;;;48.80;13.80;;;-1.10;99.90;;;;;;4930620;29;20055;-77
2023/02/14 04:14:41;;;;;;;38.42;14.95;;;-1.10;99.90;;;;;;4930690;29;20062;-76
2023/02/14 04:19:55;;;;;;;42.70;18.27;;;-1.10;99.90;;;;;;4932764;29;20051;-77
2023/02/14 04:22:23;;;;;;;96.13;18.35;;;-1.10;99.90;;;;;;4916013;29;20043;-77
2023/02/14 04:24:51;;;;;;;48.67;16.35;;;-1.10;99.90;;;;;;4903820;29;20050;-77
2023/02/14 04:27:19;;;;;;;34.42;14.25;;;-1.10;99.90;;;;;;4932972;29;20055;-77
2023/02/14 04:29:49;;;;;;;20.30;13.70;;;-1.10;99.90;;;;;;4949680;28;20052;-77
2023/02/14 04:32:20;;;;;;;31.45;13.90;;;-1.00;99.90;;;;;;4941713;29;20055;-78
2023/02/14 04:34:48;;;;;;;34.95;19.85;;;-1.00;99.90;;;;;;4921350;29;20238;-76
2023/02/14 04:37:18;;;;;;;21.63;13.88;;;-1.00;99.90;;;;;;4922496;29;20051;-77
2023/02/14 04:39:47;;;;;;;39.55;16.15;;;-1.00;99.90;;;;;;4927092;29;20387;-77
2023/02/14 04:42:14;;;;;;;28.05;16.65;;;-1.00;99.90;;;;;;4898828;29;20039;-77
2023/02/14 04:44:43;;;;;;;29.08;15.23;;;-1.00;99.90;;;;;;4930804;29;20051;-77
2023/02/14 04:47:13;;;;;;;62.72;17.35;;;-1.00;99.90;;;;;;4942862;28;20396;-76
2023/02/14 04:49:42;;;;;;;30.98;15.57;;;-1.00;99.90;;;;;;4945663;29;20039;-77
2023/02/14 04:52:09;;;;;;;38.33;15.05;;;-1.00;99.90;;;;;;4933604;29;20059;-77
2023/02/14 04:54:39;;;;;;;63.70;16.02;;;-1.00;99.90;;;;;;4944607;28;20059;-77
2023/02/14 04:57:09;;;;;;;50.05;14.30;;;-1.00;99.90;;;;;;4899723;29;20058;-77
2023/02/14 04:59:37;;;;;;;28.30;15.10;;;-1.00;99.90;;;;;;4935958;29;20052;-77
2023/02/14 05:02:05;;;;;;;32.05;17.17;;;-1.00;99.90;;;;;;4938659;28;20439;-77
2023/02/14 05:04:33;;;;;;;21.65;13.75;;;-1.00;99.90;;;;;;4934853;28;20059;-77
2023/02/14 05:07:02;;;;;;;45.92;15.20;;;-1.10;99.90;;;;;;4951422;29;20047;-77
2023/02/14 05:09:29;;;;;;;31.60;15.05;;;-1.10;99.90;;;;;;4917994;29;20068;-77
2023/02/14 05:12:00;;;;;;;28.42;16.15;;;-1.10;99.90;;;;;;4919605;29;20052;-77
2023/02/14 05:14:27;;;;;;;30.17;16.38;;;-1.10;99.90;;;;;;4927337;29;20059;-77
2023/02/14 05:16:55;;;;;;;24.23;12.38;;;-1.10;99.90;;;;;;4928374;29;20043;-77
2023/02/14 05:19:23;;;;;;;20.83;12.52;;;-1.20;99.90;;;;;;4933965;29;20423;-77
2023/02/14 05:21:51;;;;;;;24.23;13.68;;;-1.20;99.90;;;;;;4919130;29;20054;-77
2023/02/14 05:24:19;;;;;;;29.17;16.67;;;-1.30;99.90;;;;;;4949059;28;20058;-77
2023/02/14 05:26:46;;;;;;;26.17;14.82;;;-1.30;99.90;;;;;;4953409;28;20054;-76
2023/02/14 05:29:14;;;;;;;23.27;14.90;;;-1.40;99.90;;;;;;4917165;28;20050;-77
2023/02/14 05:31:42;;;;;;;25.10;16.80;;;-1.40;99.90;;;;;;4903498;29;20054;-77
2023/02/14 05:34:11;;;;;;;43.17;14.45;;;-1.40;99.90;;;;;;4933213;29;20128;-77
2023/02/14 05:36:38;;;;;;;31.10;14.68;;;-1.40;99.90;;;;;;4932491;29;20040;-77
2023/02/14 05:39:06;;;;;;;58.80;13.70;;;-1.50;99.90;;;;;;4933599;29;20059;-77
2023/02/14 05:41:34;;;;;;;29.73;14.77;;;-1.50;99.90;;;;;;4934619;28;20055;-77
2023/02/14 05:44:01;;;;;;;30.65;16.73;;;-1.50;99.90;;;;;;4907629;29;20055;-77
2023/02/14 05:46:29;;;;;;;27.85;13.85;;;-1.40;99.90;;;;;;4945730;28;20053;-77
2023/02/14 05:48:59;;;;;;;70.40;16.83;;;-1.40;99.90;;;;;;4934587;29;20043;-77
2023/02/14 05:51:26;;;;;;;33.67;18.90;;;-1.40;99.90;;;;;;4947287;29;20060;-77
2023/02/14 05:53:58;;;;;;;31.10;14.57;;;-1.30;99.90;;;;;;4942194;28;20407;-76
2023/02/14 05:56:26;;;;;;;46.97;14.90;;;-1.30;99.90;;;;;;4931060;29;20063;-77
2023/02/14 05:58:54;;;;;;;40.83;17.27;;;-1.30;99.90;;;;;;4906856;29;20055;-77
2023/02/14 06:01:21;;;;;;;40.03;15.65;;;-1.30;99.90;;;;;;4936993;29;20055;-76
2023/02/14 06:03:49;;;;;;;27.48;14.50;;;-1.30;99.90;;;;;;4953141;28;20056;-77
2023/02/14 06:06:17;;;;;;;29.02;16.70;;;-1.30;99.90;;;;;;4933050;29;20050;-77
2023/02/14 06:08:45;;;;;;;28.33;15.85;;;-1.20;99.90;;;;;;4910339;29;20047;-77
2023/02/14 06:11:13;;;;;;;22.55;16.30;;;-1.20;99.90;;;;;;4915704;29;20051;-77
2023/02/14 06:13:40;;;;;;;21.67;12.00;;;-1.20;99.90;;;;;;4929715;29;20047;-77
2023/02/14 06:16:08;;;;;;;24.73;15.70;;;-1.20;99.90;;;;;;4938251;29;20062;-77
2023/02/14 06:18:36;;;;;;;30.88;14.80;;;-1.20;99.90;;;;;;4953969;28;20065;-77
2023/02/14 06:22:18;;;;;;;22.00;15.05;;;-1.30;99.90;;;;;;4948606;29;20052;-77
2023/02/14 06:24:45;;;;;;;29.70;16.47;;;-1.30;99.90;;;;;;4923166;29;20098;-77
2023/02/14 06:27:13;;;;;;;34.85;18.23;;;-1.30;99.90;;;;;;4945085;29;20297;-77
2023/02/14 06:29:41;;;;;;;23.17;12.80;;;-1.40;99.90;;;;;;4936261;29;20054;-77
2023/02/14 06:32:08;;;;;;;27.92;14.20;;;-1.40;99.90;;;;;;4953427;29;20158;-77
2023/02/14 06:34:38;;;;;;;28.65;12.65;;;-1.30;99.90;;;;;;4936924;28;20105;-77
2023/02/14 06:37:07;;;;;;;44.30;15.05;;;-1.30;99.90;;;;;;4935881;29;20043;-77
2023/02/14 06:39:34;;;;;;;23.73;14.68;;;-1.30;99.90;;;;;;4953713;29;20051;-77
2023/02/14 06:42:02;;;;;;;27.77;15.05;;;-1.30;99.90;;;;;;4936915;29;20047;-77
2023/02/14 06:44:30;;;;;;;40.85;15.85;;;-1.30;99.90;;;;;;4910306;29;20058;-77
2023/02/14 06:46:58;;;;;;;45.60;15.38;;;-1.30;99.90;;;;;;4960593;28;20047;-77
2023/02/14 06:49:28;;;;;;;48.40;14.05;;;-1.30;99.90;;;;;;4954419;28;20423;-77
2023/02/14 06:53:03;;;;;;;23.05;14.75;;;-1.30;99.90;;;;;;4921684;29;20063;-77
2023/02/14 06:55:32;;;;;;;34.40;17.80;;;-1.30;99.90;;;;;;4948810;29;20046;-77
2023/02/14 06:58:00;;;;;;;33.85;15.38;;;-1.20;99.90;;;;;;4973565;28;20035;-77
2023/02/14 07:00:27;;;;;;;34.05;16.23;;;-1.20;99.90;;;;;;4938068;29;20054;-78
2023/02/14 07:02:55;;;;;;;29.80;13.77;;;-1.20;99.90;;;;;;4935816;29;20051;-77
2023/02/14 07:05:23;;;;;;;28.73;15.82;;;-1.20;99.90;;;;;;4940288;29;20047;-77
2023/02/14 07:07:53;;;;;;;19.27;13.27;;;-1.10;99.90;;;;;;4967860;29;20063;-77
2023/02/14 07:10:22;;;;;;;28.17;14.80;;;-1.20;99.90;;;;;;4952035;29;20052;-77
2023/02/14 07:12:51;;;;;;;26.48;17.02;;;-1.10;99.90;;;;;;4966500;28;20039;-77
2023/02/14 07:15:26;;;;;;;21.45;14.68;;;-1.10;99.90;;;;;;4944658;28;20042;-77
2023/02/14 07:17:54;;;;;;;24.65;12.50;;;-1.10;99.90;;;;;;4947685;29;20051;-78
2023/02/14 07:20:26;;;;;;;30.30;13.85;;;-1.00;99.90;;;;;;4945827;28;20047;-78
2023/02/14 07:22:53;;;;;;;41.70;13.67;;;-1.00;99.90;;;;;;4955056;29;20152;-77
2023/02/14 07:25:22;;;;;;;21.73;13.88;;;-1.00;99.90;;;;;;4951327;29;20310;-77
2023/02/14 07:27:49;;;;;;;25.65;15.38;;;-1.00;99.90;;;;;;4944787;29;20373;-77
2023/02/14 07:30:17;;;;;;;21.27;13.95;;;-0.90;99.90;;;;;;4972936;29;20046;-77
2023/02/14 07:32:45;;;;;;;23.13;14.20;;;-0.90;99.90;;;;;;4931475;29;20039;-77
2023/02/14 07:35:13;;;;;;;16.92;10.95;;;-0.90;99.90;;;;;;4923426;29;20045;-78
2023/02/14 07:37:44;;;;;;;26.13;15.40;;;-0.90;99.90;;;;;;4938462;29;20051;-77
2023/02/14 07:40:13;;;;;;;32.58;9.75;;;-0.90;99.90;;;;;;4955411;29;20059;-77
2023/02/14 07:42:42;;;;;;;19.90;12.52;;;-1.00;99.90;;;;;;4958744;29;20039;-77
2023/02/14 07:45:11;;;;;;;23.65;13.23;;;-1.00;99.90;;;;;;4954888;28;20031;-77
2023/02/14 07:47:50;;;;;;;26.00;11.85;;;-0.90;99.90;;;;;;4945992;29;20051;-77
2023/02/14 07:50:18;;;;;;;17.85;12.20;;;-0.90;99.90;;;;;;4938153;29;20031;-77
2023/02/14 07:52:46;;;;;;;45.50;14.77;;;-0.90;99.90;;;;;;4934730;29;20071;-78
2023/02/14 07:55:15;;;;;;;26.45;12.02;;;-0.90;99.90;;;;;;4934616;29;20051;-77
2023/02/14 07:57:43;;;;;;;27.27;14.60;;;-0.90;99.90;;;;;;4937801;29;20420;-77
2023/02/14 08:00:11;;;;;;;21.25;11.45;;;-0.90;99.90;;;;;;4923884;29;20070;-77
2023/02/14 08:02:39;;;;;;;24.80;13.20;;;-1.00;99.90;;;;;;4902087;29;20388;-77
2023/02/14 08:05:07;;;;;;;22.00;12.90;;;-0.90;99.90;;;;;;4944936;29;20058;-77
2023/02/14 08:07:34;;;;;;;29.58;14.18;;;-0.90;99.90;;;;;;4928203;29;20055;-77
2023/02/14 08:10:03;;;;;;;26.90;15.77;;;-0.80;99.90;;;;;;4922533;29;20275;-77
2023/02/14 08:18:03;;;;;;;18.95;12.18;;;-0.70;99.90;;;;;;4916894;29;20055;-77
2023/02/14 08:20:31;;;;;;;15.88;11.13;;;-0.70;99.90;;;;;;4918001;29;20055;-77
2023/02/14 08:22:58;;;;;;;21.40;12.57;;;-0.60;99.90;;;;;;4924842;29;20042;-77
2023/02/14 08:25:26;;;;;;;21.70;10.18;;;-0.60;99.90;;;;;;4920768;29;20058;-77
2023/02/14 08:27:54;;;;;;;25.55;13.90;;;-0.60;99.90;;;;;;4925255;29;20051;-76
2023/02/14 08:30:24;;;;;;;27.10;11.15;;;-0.50;99.90;;;;;;4938663;29;20043;-77
2023/02/14 08:32:52;;;;;;;37.60;12.98;;;-0.50;99.90;;;;;;4928021;29;20062;-77
2023/02/14 08:35:20;;;;;;;22.25;12.23;;;-0.50;99.90;;;;;;4949207;29;20058;-76
2023/02/14 08:37:48;;;;;;;21.42;12.55;;;-0.50;99.90;;;;;;4896600;29;20480;-77
2023/02/14 08:40:15;;;;;;;21.48;11.48;;;-0.40;99.90;;;;;;4945687;28;20039;-79
2023/02/14 08:42:43;;;;;;;26.48;15.05;;;-0.30;99.90;;;;;;4916188;29;20063;-76
2023/02/14 08:45:11;;;;;;;155.25;132.95;;;-0.40;99.90;;;;;;4941564;28;20043;-76
2023/02/14 08:47:39;;;;;;;33.95;16.00;;;-0.40;99.90;;;;;;4951178;28;20051;-76
2023/02/14 08:50:12;;;;;;;23.05;12.98;;;-0.30;99.90;;;;;;4912367;29;20055;-77
2023/02/14 08:52:42;;;;;;;32.40;15.95;;;-0.20;99.90;;;;;;4905451;29;20052;-76
2023/02/14 08:55:12;;;;;;;22.17;13.35;;;-0.20;99.90;;;;;;4915715;29;20055;-76
2023/02/14 08:57:40;;;;;;;21.33;12.95;;;-0.20;99.90;;;;;;4932308;28;20067;-77
2023/02/14 09:00:08;;;;;;;22.50;14.98;;;-0.10;99.90;;;;;;4902433;29;20074;-77
2023/02/14 09:02:36;;;;;;;24.67;15.48;;;-0.10;99.90;;;;;;4927436;29;20047;-76
2023/02/14 09:05:05;;;;;;;26.50;14.00;;;-0.10;99.90;;;;;;4927651;29;20273;-77
2023/02/14 09:07:32;;;;;;;30.65;16.92;;;0.00;99.90;;;;;;4942763;28;20449;-77
2023/02/14 09:10:04;;;;;;;24.38;14.45;;;0.10;99.90;;;;;;4904689;29;20062;-76
2023/02/14 09:12:40;;;;;;;63.97;15.43;;;0.20;99.90;;;;;;4926284;29;20063;-76
2023/02/14 09:15:09;;;;;;;36.35;23.13;;;0.20;99.90;;;;;;4929619;29;20107;-76
2023/02/14 09:17:37;;;;;;;29.90;18.05;;;0.30;99.90;;;;;;4913348;29;20574;-77
2023/02/14 09:20:07;;;;;;;22.10;14.82;;;0.40;99.90;;;;;;4944678;29;20055;-76
2023/02/14 09:22:34;;;;;;;24.85;13.27;;;0.40;99.90;;;;;;4946039;28;20055;-76
2023/02/14 09:25:03;;;;;;;19.42;13.13;;;0.50;99.90;;;;;;4945494;28;20042;-77
2023/02/14 09:27:31;;;;;;;24.35;12.45;;;0.50;99.90;;;;;;4927429;29;20058;-76
2023/02/14 09:29:59;;;;;;;24.35;13.00;;;0.60;99.90;;;;;;4927236;28;20039;-76
2023/02/14 09:32:28;;;;;;;27.25;13.65;;;0.60;99.90;;;;;;4946245;28;20055;-76
2023/02/14 09:40:30;;;;;;;19.63;12.95;;;0.90;99.90;;;;;;4928601;28;20106;-76
2023/02/14 09:43:11;;;;;;;19.02;12.75;;;0.90;99.90;;;;;;4926103;29;20051;-76
2023/02/14 09:45:39;;;;;;;23.25;11.73;;;1.00;99.90;;;;;;4948725;28;20047;-76
2023/02/14 09:48:19;;;;;;;23.10;12.60;;;1.20;99.90;;;;;;4947669;29;20051;-76
2023/02/14 09:50:54;;;;;;;20.40;12.52;;;1.70;99.90;;;;;;4924960;28;20062;-76
2023/02/14 09:53:33;;;;;;;21.40;12.90;;;1.70;99.90;;;;;;4928470;29;20807;-76
2023/02/14 09:56:12;;;;;;;22.42;12.15;;;1.40;99.90;;;;;;4929919;29;20054;-76
2023/02/14 09:59:00;;;;;;;21.58;13.13;;;1.10;99.90;;;;;;4911767;29;20129;-76
2023/02/14 10:01:39;;;;;;;32.92;14.32;;;1.00;99.90;;;;;;4942024;29;20050;-77
2023/02/14 10:04:26;;;;;;;26.25;14.75;;;1.20;99.90;;;;;;4944503;29;20043;-76
2023/02/14 10:07:20;;;;;;;28.10;14.60;;;1.30;99.90;;;;;;4908313;28;20054;-77
2023/02/14 10:10:09;;;;;;;20.55;11.63;;;1.20;99.90;;;;;;4943672;28;20051;-77
2023/02/14 10:12:58;;;;;;;20.05;12.70;;;1.30;99.90;;;;;;4940177;28;20055;-77
2023/02/14 10:15:37;;;;;;;19.42;12.18;;;1.60;99.90;;;;;;4935301;29;20051;-77
2023/02/14 10:18:27;;;;;;;22.30;14.80;;;2.00;99.90;;;;;;4921302;29;20047;-77
2023/02/14 10:20:57;;;;;;;18.40;11.88;;;2.30;99.90;;;;;;4910874;29;20043;-77
2023/02/14 10:23:41;;;;;;;23.35;13.35;;;2.20;99.90;;;;;;4927346;29;20451;-77
2023/02/14 10:26:11;;;;;;;21.52;13.85;;;2.10;99.90;;;;;;4919285;29;20040;-76
2023/02/14 10:28:44;;;;;;;22.75;14.25;;;2.10;99.90;;;;;;4925643;29;20055;-77
2023/02/14 10:31:18;;;;;;;17.65;12.07;;;2.10;99.90;;;;;;4912373;29;20416;-77
2023/02/14 10:33:54;;;;;;;20.98;13.20;;;2.50;99.90;;;;;;4920512;29;20867;-77
2023/02/14 10:36:48;;;;;;;23.27;12.88;;;2.70;99.90;;;;;;4913905;29;20051;-77
2023/02/14 10:39:22;;;;;;;;;;;2.70;99.90;;;;;;4929379;29;20066;-77
2023/02/14 10:42:03;;;;;;;19.42;12.85;;;2.70;99.90;;;;;;4936015;28;19931;-76
2023/02/14 10:44:32;;;;;;;;;;;2.40;99.90;;;;;;4921157;29;20406;-77
2023/02/14 10:47:21;;;;;;;20.40;11.73;;;2.10;99.90;;;;;;4927619;29;19933;-77
2023/02/14 10:50:15;;;;;;;18.00;13.10;;;2.00;99.90;;;;;;4945755;28;20055;-77
2023/02/14 10:53:01;;;;;;;17.27;12.85;;;2.10;99.90;;;;;;4909044;29;20043;-76
2023/02/14 10:56:11;;;;;;;15.98;10.73;;;2.40;99.90;;;;;;4938605;29;20051;-77
2023/02/14 10:58:41;;;;;;;21.83;13.70;;;2.90;99.90;;;;;;4934809;29;20070;-77
2023/02/14 11:01:14;;;;;;;17.30;10.27;;;3.10;99.90;;;;;;4918908;29;20043;-77
2023/02/14 11:03:57;;;;;;;15.18;10.07;;;3.50;99.90;;;;;;4926578;29;20045;-77
2023/02/14 11:06:25;;;;;;;22.23;12.40;;;3.90;99.90;;;;;;4938374;28;20058;-77
2023/02/14 11:08:53;;;;;;;18.73;12.65;;;4.20;99.90;;;;;;4895117;29;20364;-77
2023/02/14 11:11:37;;;;;;;15.55;9.70;;;4.20;99.90;;;;;;4944653;29;20039;-77
2023/02/14 11:14:22;;;;;;;;;;;3.90;99.90;;;;;;4938541;29;20062;-77
2023/02/14 11:16:50;;;;;;;20.77;11.52;;;3.60;99.90;;;;;;4919212;29;19927;-77
2023/02/14 11:19:24;;;;;;;16.73;10.52;;;3.20;99.90;;;;;;4923778;29;20059;-76
2023/02/14 11:21:54;;;;;;;17.83;10.43;;;2.90;99.90;;;;;;4906164;29;20051;-77
2023/02/14 11:24:34;;;;;;;18.58;11.10;;;2.80;99.90;;;;;;4917311;28;20047;-77
2023/02/14 11:27:22;;;;;;;17.85;11.85;;;2.70;99.90;;;;;;4928365;29;20075;-77
2023/02/14 11:29:53;;;;;;;22.52;11.73;;;2.90;99.90;;;;;;4908695;29;20050;-77
2023/02/14 11:32:30;;;;;;;15.80;10.82;;;3.30;99.90;;;;;;4938426;28;20051;-78
2023/02/14 11:35:05;;;;;;;19.23;12.70;;;3.50;99.90;;;;;;4919858;29;20052;-77
2023/02/14 11:37:41;;;;;;;10.57;9.30;;;3.70;99.90;;;;;;4924105;28;20091;-77
2023/02/14 11:40:27;;;;;;;16.45;11.05;;;3.80;99.90;;;;;;4935864;29;20063;-77
2023/02/14 11:43:19;;;;;;;19.67;11.73;;;4.00;99.90;;;;;;4907938;29;20066;-77
2023/02/14 11:45:48;;;;;;;13.82;10.80;;;4.10;99.90;;;;;;4912661;29;20036;-77
2023/02/14 11:48:24;;;;;;;14.23;10.20;;;4.20;99.90;;;;;;4928396;29;20409;-77
2023/02/14 11:51:13;;;;;;;14.15;9.65;;;4.40;99.90;;;;;;4926425;29;20440;-77
2023/02/14 11:53:44;;;;;;;17.10;9.85;;;4.50;99.90;;;;;;4927270;29;20044;-77
2023/02/14 11:56:16;;;;;;;13.07;10.63;;;4.60;99.90;;;;;;4928602;29;20055;-77
2023/02/14 11:59:02;;;;;;;20.05;11.52;;;4.60;99.90;;;;;;4941733;29;20047;-77
2023/02/14 12:01:33;;;;;;;17.25;9.82;;;4.50;99.90;;;;;;4920985;29;20444;-77
2023/02/14 12:04:13;;;;;;;16.00;8.95;;;4.50;99.90;;;;;;4910764;29;20054;-77
2023/02/14 12:06:43;;;;;;;15.38;10.13;;;4.80;99.90;;;;;;4923585;29;20050;-77
2023/02/14 12:09:24;;;;;;;10.63;8.40;;;4.90;99.90;;;;;;4905932;29;20055;-77
2023/02/14 12:12:01;;;;;;;15.50;9.27;;;5.10;99.90;;;;;;4908444;29;20054;-77
2023/02/14 12:14:38;;;;;;;17.30;9.38;;;5.10;99.90;;;;;;4922528;29;20062;-77
2023/02/14 12:17:17;;;;;;;13.88;8.60;;;5.20;99.90;;;;;;4923641;29;20039;-77
2023/02/14 12:20:34;;;;;;;11.85;9.38;;;5.30;99.90;;;;;;4921636;29;20062;-77
2023/02/14 12:23:18;;;;;;;16.25;12.63;;;5.50;99.90;;;;;;4917565;29;20050;-77
2023/02/14 12:25:51;;;;;;;14.93;12.93;;;5.60;99.90;;;;;;4938695;28;20835;-77
2023/02/14 12:28:27;;;;;;;20.58;10.32;;;5.60;99.90;;;;;;4928150;29;20047;-77
2023/02/14 12:30:56;;;;;;;18.92;10.50;;;5.70;99.90;;;;;;4936721;29;20428;-77
2023/02/14 12:33:24;;;;;;;10.77;6.93;;;5.80;99.90;;;;;;4927275;29;20048;-77
2023/02/14 12:36:00;;;;;;;11.95;8.30;;;5.80;99.90;;;;;;4909830;29;20114;-77
2023/02/14 12:38:29;;;;;;;12.85;9.27;;;5.90;99.90;;;;;;4920479;29;20444;-77
2023/02/14 12:41:34;;;;;;;13.93;9.80;;;6.20;99.90;;;;;;4909591;29;20098;-77
2023/02/14 12:44:50;;;;;;;13.10;7.40;;;6.50;99.90;;;;;;4943482;29;20054;-77
2023/02/14 12:47:38;;;;;;;14.75;7.88;;;6.40;99.90;;;;;;4902007;29;20059;-77
2023/02/14 12:50:33;;;;;;;13.13;9.30;;;6.70;99.90;;;;;;4919784;29;20046;-77
2023/02/14 12:53:15;;;;;;;13.43;10.82;;;6.80;99.90;;;;;;4936704;28;20044;-77
2023/02/14 12:56:02;;;;;;;15.20;10.23;;;6.70;99.90;;;;;;4951421;28;20062;-80
2023/02/14 12:58:44;;;;;;;13.18;7.93;;;6.90;99.90;;;;;;4937493;29;20778;-77
2023/02/14 13:01:40;;;;;;;15.82;9.32;;;6.90;99.90;;;;;;4941915;28;20048;-77
2023/02/14 13:04:31;;;;;;;14.80;9.80;;;6.80;99.90;;;;;;4903354;29;20059;-77
2023/02/14 13:07:13;;;;;;;11.55;8.45;;;6.80;99.90;;;;;;4898734;29;20051;-77
2023/02/14 13:10:18;;;;;;;12.85;7.70;;;6.90;99.90;;;;;;4923044;29;20066;-77
2023/02/14 13:13:04;;;;;;;14.38;9.90;;;7.10;99.90;;;;;;4895369;29;20046;-77
2023/02/14 13:15:59;;;;;;;15.43;7.72;;;7.10;99.90;;;;;;4927972;29;20244;-77
2023/02/14 13:18:47;;;;;;;13.82;9.40;;;7.10;99.90;;;;;;4930330;29;20055;-77
2023/02/14 13:21:23;;;;;;;10.35;7.65;;;7.10;99.90;;;;;;4925656;29;20051;-77
2023/02/14 13:23:55;;;;;;;15.50;9.98;;;7.10;99.90;;;;;;4928148;29;20055;-77
2023/02/14 13:26:36;;;;;;;15.63;9.88;;;7.10;99.90;;;;;;4942004;28;20050;-77
2023/02/14 13:29:09;;;;;;;12.38;9.70;;;7.10;99.90;;;;;;4948212;29;20058;-77
2023/02/14 13:31:40;;;;;;;12.07;8.88;;;7.20;99.90;;;;;;4927806;29;20059;-77